sensor_id;sensor_type;location;lat;lon;timestamp;pressure;altitude;pressure_sealevel;temperature;humidity
28000;BME280;15328;50.860;10.562;2023-03-14T00:00:19;94317.25;;;10.08;72.54
28000;BME280;15328;50.860;10.562;2023-03-14T00:05:19;94320.47;;;10.15;72.14
28000;BME280;15328;50.860;10.562;2023-03-14T00:10:20;94356.84;;;10.15;71.93
28000;BME280;15328;50.860;10.562;2023-03-14T00:15:20;94362.41;;;9.93;72.09
28000;BME280;15328;50.860;10.562;2023-03-14T00:20:21;94373.81;;;10.09;71.56
28000;BME280;15328;50.860;10.562;2023-03-14T00:25:21;94401.72;;;9.96;72.21
28000;BME280;15328;50.860;10.562;2023-03-14T00:30:21;94400.09;;;9.90;72.73
28000;BME280;15328;50.860;10.562;2023-03-14T00:35:22;94398.00;;;10.12;71.63
28000;BME280;15328;50.860;10.562;2023-03-14T00:40:22;94402.50;;;10.02;71.11
28000;BME280;15328;50.860;10.562;2023-03-14T00:45:22;94425.34;;;10.03;71.27
28000;BME280;15328;50.860;10.562;2023-03-14T00:50:23;94406.50;;;10.09;70.95
28000;BME280;15328;50.860;10.562;2023-03-14T00:55:23;94419.00;;;10.09;69.80
28000;BME280;15328;50.860;10.562;2023-03-14T01:00:24;94408.09;;;10.05;70.47
28000;BME280;15328;50.860;10.562;2023-03-14T01:05:24;94418.19;;;10.13;68.48
28000;BME280;15328;50.860;10.562;2023-03-14T01:10:25;94415.28;;;10.10;68.40
28000;BME280;15328;50.860;10.562;2023-03-14T01:15:25;94410.25;;;10.18;67.76
28000;BME280;15328;50.860;10.562;2023-03-14T01:20:26;94404.09;;;10.03;68.85
28000;BME280;15328;50.860;10.562;2023-03-14T01:25:26;94394.00;;;9.95;68.18
28000;BME280;15328;50.860;10.562;2023-03-14T01:30:27;94373.78;;;9.73;69.08
28000;BME280;15328;50.860;10.562;2023-03-14T01:35:27;94398.28;;;10.11;68.15
28000;BME280;15328;50.860;10.562;2023-03-14T01:40:28;94389.22;;;9.86;68.73
28000;BME280;15328;50.860;10.562;2023-03-14T01:51:20;94381.53;;;9.95;68.50
28000;BME280;15328;50.860;10.562;2023-03-14T01:56:22;94361.56;;;9.82;68.55
28000;BME280;15328;50.860;10.562;2023-03-14T02:01:25;94357.28;;;9.61;69.73
28000;BME280;15328;50.860;10.562;2023-03-14T02:06:41;94348.06;;;9.94;68.31
28000;BME280;15328;50.860;10.562;2023-03-14T02:11:43;94342.75;;;9.89;68.90
28000;BME280;15328;50.860;10.562;2023-03-14T02:16:44;94349.91;;;10.09;67.85
28000;BME280;15328;50.860;10.562;2023-03-14T02:27:12;94314.88;;;9.86;68.90
28000;BME280;15328;50.860;10.562;2023-03-14T02:32:14;94312.47;;;10.00;68.35
28000;BME280;15328;50.860;10.562;2023-03-14T02:37:16;94331.06;;;10.05;68.08
28000;BME280;15328;50.860;10.562;2023-03-14T02:42:17;94320.69;;;9.94;68.46
28000;BME280;15328;50.860;10.562;2023-03-14T02:47:20;94311.38;;;9.71;69.36
28000;BME280;15328;50.860;10.562;2023-03-14T02:52:22;94312.44;;;9.85;68.80
28000;BME280;15328;50.860;10.562;2023-03-14T02:57:22;94312.97;;;9.67;69.53
28000;BME280;15328;50.860;10.562;2023-03-14T03:02:23;94306.91;;;9.86;68.44
28000;BME280;15328;50.860;10.562;2023-03-14T03:07:24;94303.44;;;9.91;68.13
28000;BME280;15328;50.860;10.562;2023-03-14T03:12:24;94312.16;;;9.71;68.69
28000;BME280;15328;50.860;10.562;2023-03-14T03:17:25;94297.31;;;9.65;69.01
28000;BME280;15328;50.860;10.562;2023-03-14T03:22:25;94297.53;;;9.58;69.10
28000;BME280;15328;50.860;10.562;2023-03-14T03:27:25;94313.81;;;9.87;67.73
28000;BME280;15328;50.860;10.562;2023-03-14T03:32:26;94293.63;;;9.86;67.98
28000;BME280;15328;50.860;10.562;2023-03-14T03:37:26;94295.22;;;9.87;68.57
28000;BME280;15328;50.860;10.562;2023-03-14T03:42:27;94288.28;;;9.81;68.73
28000;BME280;15328;50.860;10.562;2023-03-14T03:47:30;94297.59;;;9.89;68.51
28000;BME280;15328;50.860;10.562;2023-03-14T03:52:31;94292.53;;;9.77;68.47
28000;BME280;15328;50.860;10.562;2023-03-14T03:57:31;94293.06;;;9.69;68.58
28000;BME280;15328;50.860;10.562;2023-03-14T04:02:32;94283.75;;;9.77;68.41
28000;BME280;15328;50.860;10.562;2023-03-14T04:07:32;94261.19;;;9.79;68.55
28000;BME280;15328;50.860;10.562;2023-03-14T04:12:33;94258.03;;;9.93;67.93
28000;BME280;15328;50.860;10.562;2023-03-14T04:17:33;94273.44;;;9.96;67.97
28000;BME280;15328;50.860;10.562;2023-03-14T04:22:33;94266.50;;;10.00;67.54
28000;BME280;15328;50.860;10.562;2023-03-14T04:27:34;94271.03;;;9.74;69.83
28000;BME280;15328;50.860;10.562;2023-03-14T04:32:34;94259.59;;;9.68;70.37
28000;BME280;15328;50.860;10.562;2023-03-14T04:37:35;94254.78;;;9.45;70.97
28000;BME280;15328;50.860;10.562;2023-03-14T04:42:35;94218.16;;;9.57;70.66
28000;BME280;15328;50.860;10.562;2023-03-14T04:47:36;94228.00;;;9.56;69.91
28000;BME280;15328;50.860;10.562;2023-03-14T04:52:37;94215.00;;;9.65;69.66
28000;BME280;15328;50.860;10.562;2023-03-14T04:57:37;94209.44;;;9.62;69.48
28000;BME280;15328;50.860;10.562;2023-03-14T05:02:38;94180.75;;;9.53;70.16
28000;BME280;15328;50.860;10.562;2023-03-14T05:07:38;94182.09;;;9.36;70.45
28000;BME280;15328;50.860;10.562;2023-03-14T05:12:38;94162.16;;;9.53;69.48
28000;BME280;15328;50.860;10.562;2023-03-14T05:17:39;94136.97;;;9.41;70.00
28000;BME280;15328;50.860;10.562;2023-03-14T05:22:39;94135.09;;;9.51;69.18
28000;BME280;15328;50.860;10.562;2023-03-14T05:27:40;94141.75;;;9.34;69.12
28000;BME280;15328;50.860;10.562;2023-03-14T05:32:40;94149.41;;;9.20;69.55
28000;BME280;15328;50.860;10.562;2023-03-14T05:37:40;94131.13;;;9.23;68.73
28000;BME280;15328;50.860;10.562;2023-03-14T05:42:41;94153.97;;;9.35;67.49
28000;BME280;15328;50.860;10.562;2023-03-14T05:47:41;94159.25;;;9.45;67.28
28000;BME280;15328;50.860;10.562;2023-03-14T05:52:41;94148.38;;;9.46;67.82
28000;BME280;15328;50.860;10.562;2023-03-14T05:57:42;94145.44;;;9.27;69.64
28000;BME280;15328;50.860;10.562;2023-03-14T06:02:42;94154.22;;;9.43;69.37
28000;BME280;15328;50.860;10.562;2023-03-14T06:07:43;94160.56;;;9.12;70.06
28000;BME280;15328;50.860;10.562;2023-03-14T06:12:43;94152.91;;;9.36;69.37
28000;BME280;15328;50.860;10.562;2023-03-14T06:17:43;94145.19;;;9.39;69.00
28000;BME280;15328;50.860;10.562;2023-03-14T06:22:44;94134.81;;;9.22;69.57
28000;BME280;15328;50.860;10.562;2023-03-14T06:27:44;94152.34;;;9.28;69.83
28000;BME280;15328;50.860;10.562;2023-03-14T06:32:44;94155.00;;;9.28;69.57
28000;BME280;15328;50.860;10.562;2023-03-14T06:37:45;94135.34;;;9.04;70.82
28000;BME280;15328;50.860;10.562;2023-03-14T06:42:46;94144.13;;;9.20;70.76
28000;BME280;15328;50.860;10.562;2023-03-14T06:47:46;94146.75;;;9.15;70.84
28000;BME280;15328;50.860;10.562;2023-03-14T06:52:47;94161.88;;;9.14;70.55
28000;BME280;15328;50.860;10.562;2023-03-14T06:57:47;94166.97;;;9.36;70.11
28000;BME280;15328;50.860;10.562;2023-03-14T07:02:48;94156.06;;;9.38;69.36
28000;BME280;15328;50.860;10.562;2023-03-14T07:07:48;94177.84;;;9.45;68.83
28000;BME280;15328;50.860;10.562;2023-03-14T07:12:49;94173.59;;;9.39;68.79
28000;BME280;15328;50.860;10.562;2023-03-14T07:17:49;94181.53;;;9.23;69.40
28000;BME280;15328;50.860;10.562;2023-03-14T07:22:50;94191.09;;;9.45;68.53
28000;BME280;15328;50.860;10.562;2023-03-14T07:27:50;94182.38;;;9.59;68.13
28000;BME280;15328;50.860;10.562;2023-03-14T07:32:51;94171.19;;;9.73;67.97
28000;BME280;15328;50.860;10.562;2023-03-14T07:37:51;94165.34;;;9.76;67.38
28000;BME280;15328;50.860;10.562;2023-03-14T07:42:51;94164.03;;;9.88;67.16
28000;BME280;15328;50.860;10.562;2023-03-14T07:47:55;94147.28;;;9.88;65.18
28000;BME280;15328;50.860;10.562;2023-03-14T07:52:58;94169.31;;;9.99;65.74
28000;BME280;15328;50.860;10.562;2023-03-14T07:57:58;94154.94;;;10.05;65.52
28000;BME280;15328;50.860;10.562;2023-03-14T08:02:59;94154.94;;;10.05;65.93
28000;BME280;15328;50.860;10.562;2023-03-14T08:07:59;94135.03;;;10.02;65.52
28000;BME280;15328;50.860;10.562;2023-03-14T08:13:00;94135.31;;;10.01;65.50
28000;BME280;15328;50.860;10.562;2023-03-14T08:18:01;94120.94;;;10.07;64.83
28000;BME280;15328;50.860;10.562;2023-03-14T08:23:01;94114.75;;;10.42;64.48
28000;BME280;15328;50.860;10.562;2023-03-14T08:28:02;94127.06;;;10.02;64.65
28000;BME280;15328;50.860;10.562;2023-03-14T08:33:02;94130.75;;;10.11;64.79
28000;BME280;15328;50.860;10.562;2023-03-14T08:38:02;94130.22;;;10.25;63.01
28000;BME280;15328;50.860;10.562;2023-03-14T08:43:03;94144.78;;;10.47;63.81
28000;BME280;15328;50.860;10.562;2023-03-14T08:48:04;94160.44;;;10.49;64.12
28000;BME280;15328;50.860;10.562;2023-03-14T08:53:04;94170.56;;;10.42;64.69
28000;BME280;15328;50.860;10.562;2023-03-14T08:58:04;94175.78;;;10.67;63.73
28000;BME280;15328;50.860;10.562;2023-03-14T09:03:05;94162.56;;;10.52;63.62
28000;BME280;15328;50.860;10.562;2023-03-14T09:08:05;94168.66;;;10.52;63.52
28000;BME280;15328;50.860;10.562;2023-03-14T09:13:05;94167.38;;;10.45;63.43
28000;BME280;15328;50.860;10.562;2023-03-14T09:18:06;94151.91;;;10.52;63.13
28000;BME280;15328;50.860;10.562;2023-03-14T09:23:06;94175.53;;;10.64;62.76
28000;BME280;15328;50.860;10.562;2023-03-14T09:28:06;94147.31;;;10.68;62.97
28000;BME280;15328;50.860;10.562;2023-03-14T09:33:07;94166.75;;;10.68;63.07
28000;BME280;15328;50.860;10.562;2023-03-14T09:38:07;94178.97;;;10.64;63.00
28000;BME280;15328;50.860;10.562;2023-03-14T09:43:13;94182.09;;;10.81;62.94
28000;BME280;15328;50.860;10.562;2023-03-14T09:48:20;94188.97;;;10.98;61.81
28000;BME280;15328;50.860;10.562;2023-03-14T09:53:26;94193.97;;;11.04;61.60
28000;BME280;15328;50.860;10.562;2023-03-14T09:58:29;94202.16;;;11.13;60.92
28000;BME280;15328;50.860;10.562;2023-03-14T10:03:34;94201.06;;;11.19;60.54
28000;BME280;15328;50.860;10.562;2023-03-14T10:08:34;94206.66;;;11.18;60.61
28000;BME280;15328;50.860;10.562;2023-03-14T10:13:35;94213.28;;;11.25;60.84
28000;BME280;15328;50.860;10.562;2023-03-14T10:18:46;94224.72;;;11.21;60.66
28000;BME280;15328;50.860;10.562;2023-03-14T10:23:47;94221.03;;;11.17;60.55
28000;BME280;15328;50.860;10.562;2023-03-14T10:28:51;94206.38;;;11.19;61.49
28000;BME280;15328;50.860;10.562;2023-03-14T10:34:01;94227.44;;;11.15;61.02
28000;BME280;15328;50.860;10.562;2023-03-14T10:44:21;94230.41;;;11.04;61.42
28000;BME280;15328;50.860;10.562;2023-03-14T10:49:28;94241.06;;;11.04;61.19
28000;BME280;15328;50.860;10.562;2023-03-14T10:54:30;94242.00;;;10.69;62.34
28000;BME280;15328;50.860;10.562;2023-03-14T10:59:39;94231.25;;;10.99;61.12
28000;BME280;15328;50.860;10.562;2023-03-14T11:09:50;94226.38;;;11.11;60.90
28000;BME280;15328;50.860;10.562;2023-03-14T11:15:05;94218.56;;;11.30;60.52
28000;BME280;15328;50.860;10.562;2023-03-14T11:25:37;94233.59;;;11.55;59.80
28000;BME280;15328;50.860;10.562;2023-03-14T11:30:55;94227.47;;;11.55;59.70
28000;BME280;15328;50.860;10.562;2023-03-14T11:36:06;94218.75;;;11.44;59.84
28000;BME280;15328;50.860;10.562;2023-03-14T11:41:18;94223.47;;;11.57;59.80
28000;BME280;15328;50.860;10.562;2023-03-14T11:46:29;94211.63;;;11.79;59.73
28000;BME280;15328;50.860;10.562;2023-03-14T11:51:44;94206.06;;;11.70;59.69
28000;BME280;15328;50.860;10.562;2023-03-14T11:56:47;94204.56;;;11.93;59.75
28000;BME280;15328;50.860;10.562;2023-03-14T12:01:53;94201.63;;;11.94;59.74
28000;BME280;15328;50.860;10.562;2023-03-14T12:06:56;94210.38;;;12.00;59.36
28000;BME280;15328;50.860;10.562;2023-03-14T12:12:00;94208.31;;;11.92;58.78
28000;BME280;15328;50.860;10.562;2023-03-14T12:22:26;94205.66;;;12.21;58.46
28000;BME280;15328;50.860;10.562;2023-03-14T12:27:47;94202.59;;;12.32;58.49
28000;BME280;15328;50.860;10.562;2023-03-14T12:33:19;94204.78;;;12.54;58.34
28000;BME280;15328;50.860;10.562;2023-03-14T12:43:37;94194.72;;;13.13;57.34
28000;BME280;15328;50.860;10.562;2023-03-14T12:48:39;94215.94;;;12.80;55.16
28000;BME280;15328;50.860;10.562;2023-03-14T13:04:28;94181.97;;;12.43;55.84
28000;BME280;15328;50.860;10.562;2023-03-14T13:14:30;94170.72;;;12.22;58.36
28000;BME280;15328;50.860;10.562;2023-03-14T13:19:33;94167.03;;;12.18;59.59
28000;BME280;15328;50.860;10.562;2023-03-14T13:24:34;94176.75;;;12.04;61.07
28000;BME280;15328;50.860;10.562;2023-03-14T13:29:35;94179.63;;;11.84;62.62
28000;BME280;15328;50.860;10.562;2023-03-14T13:34:36;94188.72;;;11.72;63.22
28000;BME280;15328;50.860;10.562;2023-03-14T13:39:39;94208.34;;;11.48;63.72
28000;BME280;15328;50.860;10.562;2023-03-14T13:44:40;94222.75;;;11.41;64.39
28000;BME280;15328;50.860;10.562;2023-03-14T13:49:41;94215.13;;;11.30;64.51
28000;BME280;15328;50.860;10.562;2023-03-14T13:54:41;94239.50;;;10.98;65.49
28000;BME280;15328;50.860;10.562;2023-03-14T13:59:42;94261.31;;;10.90;65.92
28000;BME280;15328;50.860;10.562;2023-03-14T14:04:42;94304.97;;;10.83;66.33
28000;BME280;15328;50.860;10.562;2023-03-14T14:09:46;94343.84;;;10.39;64.98
28000;BME280;15328;50.860;10.562;2023-03-14T14:14:52;94361.06;;;10.11;66.12
28000;BME280;15328;50.860;10.562;2023-03-14T14:19:54;94381.53;;;9.90;66.21
28000;BME280;15328;50.860;10.562;2023-03-14T14:24:56;94412.78;;;9.73;66.17
28000;BME280;15328;50.860;10.562;2023-03-14T14:30:32;94435.13;;;9.24;67.76
28000;BME280;15328;50.860;10.562;2023-03-14T14:35:34;94465.19;;;8.93;66.70
28000;BME280;15328;50.860;10.562;2023-03-14T14:40:44;94511.13;;;8.72;67.16
28000;BME280;15328;50.860;10.562;2023-03-14T14:45:48;94538.06;;;8.58;68.10
28000;BME280;15328;50.860;10.562;2023-03-14T14:50:50;94564.16;;;8.45;68.15
28000;BME280;15328;50.860;10.562;2023-03-14T14:55:57;94585.38;;;8.23;68.14
28000;BME280;15328;50.860;10.562;2023-03-14T15:01:13;94630.25;;;8.13;69.06
28000;BME280;15328;50.860;10.562;2023-03-14T15:06:16;94652.75;;;7.93;67.40
28000;BME280;15328;50.860;10.562;2023-03-14T15:11:21;94664.94;;;7.72;66.75
28000;BME280;15328;50.860;10.562;2023-03-14T15:16:29;94696.09;;;7.37;67.13
28000;BME280;15328;50.860;10.562;2023-03-14T15:21:30;94741.28;;;7.19;66.94
28000;BME280;15328;50.860;10.562;2023-03-14T15:26:30;94768.47;;;7.02;66.12
28000;BME280;15328;50.860;10.562;2023-03-14T15:31:30;94776.38;;;6.86;66.45
28000;BME280;15328;50.860;10.562;2023-03-14T15:36:33;94815.78;;;6.75;66.03
28000;BME280;15328;50.860;10.562;2023-03-14T15:41:34;94835.34;;;6.63;66.71
28000;BME280;15328;50.860;10.562;2023-03-14T15:46:34;94858.56;;;6.37;65.68
28000;BME280;15328;50.860;10.562;2023-03-14T15:51:34;94880.00;;;6.29;66.52
28000;BME280;15328;50.860;10.562;2023-03-14T15:56:35;94891.94;;;6.20;65.90
28000;BME280;15328;50.860;10.562;2023-03-14T16:01:35;94916.75;;;6.19;65.76
28000;BME280;15328;50.860;10.562;2023-03-14T16:06:35;94937.28;;;6.17;65.77
28000;BME280;15328;50.860;10.562;2023-03-14T16:11:36;94954.41;;;6.14;64.69
28000;BME280;15328;50.860;10.562;2023-03-14T16:16:36;94953.91;;;6.06;65.24
28000;BME280;15328;50.860;10.562;2023-03-14T16:21:37;94962.28;;;6.03;66.02
28000;BME280;15328;50.860;10.562;2023-03-14T16:26:37;94982.66;;;5.96;66.21
28000;BME280;15328;50.860;10.562;2023-03-14T16:31:38;95004.69;;;5.89;65.48
28000;BME280;15328;50.860;10.562;2023-03-14T16:36:42;95018.31;;;5.86;65.09
28000;BME280;15328;50.860;10.562;2023-03-14T16:41:42;95035.84;;;5.63;65.84
28000;BME280;15328;50.860;10.562;2023-03-14T16:46:42;95030.94;;;5.48;66.01
28000;BME280;15328;50.860;10.562;2023-03-14T16:51:43;95055.91;;;5.45;66.05
28000;BME280;15328;50.860;10.562;2023-03-14T16:56:43;95068.88;;;5.47;66.43
28000;BME280;15328;50.860;10.562;2023-03-14T17:01:44;95083.25;;;5.51;66.05
28000;BME280;15328;50.860;10.562;2023-03-14T17:06:44;95094.25;;;5.48;66.73
28000;BME280;15328;50.860;10.562;2023-03-14T17:11:45;95098.03;;;5.34;66.32
28000;BME280;15328;50.860;10.562;2023-03-14T17:16:45;95134.66;;;5.17;67.18
28000;BME280;15328;50.860;10.562;2023-03-14T17:21:46;95127.31;;;5.01;66.98
28000;BME280;15328;50.860;10.562;2023-03-14T17:26:47;95149.91;;;4.83;67.41
28000;BME280;15328;50.860;10.562;2023-03-14T17:31:47;95161.47;;;4.82;67.44
28000;BME280;15328;50.860;10.562;2023-03-14T17:36:47;95174.91;;;4.74;67.38
28000;BME280;15328;50.860;10.562;2023-03-14T17:41:48;95195.19;;;4.74;67.38
28000;BME280;15328;50.860;10.562;2023-03-14T17:46:48;95207.56;;;4.73;67.75
28000;BME280;15328;50.860;10.562;2023-03-14T17:51:48;95234.13;;;4.65;68.05
28000;BME280;15328;50.860;10.562;2023-03-14T17:56:49;95260.06;;;4.61;67.75
28000;BME280;15328;50.860;10.562;2023-03-14T18:01:49;95265.94;;;4.63;66.75
28000;BME280;15328;50.860;10.562;2023-03-14T18:06:51;95284.63;;;4.55;66.74
28000;BME280;15328;50.860;10.562;2023-03-14T18:11:51;95301.25;;;4.49;66.50
28000;BME280;15328;50.860;10.562;2023-03-14T18:16:52;95306.94;;;4.33;66.73
28000;BME280;15328;50.860;10.562;2023-03-14T18:21:52;95324.00;;;4.17;66.12
28000;BME280;15328;50.860;10.562;2023-03-14T18:26:53;95327.47;;;4.11;66.75
28000;BME280;15328;50.860;10.562;2023-03-14T18:31:53;95346.06;;;4.10;67.29
28000;BME280;15328;50.860;10.562;2023-03-14T18:36:55;95357.81;;;4.07;67.36
28000;BME280;15328;50.860;10.562;2023-03-14T18:41:56;95361.84;;;4.10;67.68
28000;BME280;15328;50.860;10.562;2023-03-14T18:46:56;95366.13;;;4.04;67.05
28000;BME280;15328;50.860;10.562;2023-03-14T18:51:56;95368.75;;;4.04;67.05
28000;BME280;15328;50.860;10.562;2023-03-14T18:56:57;95391.22;;;4.00;67.20
28000;BME280;15328;50.860;10.562;2023-03-14T19:01:59;95404.38;;;4.07;66.87
28000;BME280;15328;50.860;10.562;2023-03-14T19:06:59;95407.81;;;4.07;67.66
28000;BME280;15328;50.860;10.562;2023-03-14T19:12:01;95432.13;;;4.02;67.36
28000;BME280;15328;50.860;10.562;2023-03-14T19:17:01;95435.56;;;3.96;68.09
28000;BME280;15328;50.860;10.562;2023-03-14T19:22:01;95432.31;;;4.01;67.63
28000;BME280;15328;50.860;10.562;2023-03-14T19:27:02;95445.47;;;4.01;68.14
28000;BME280;15328;50.860;10.562;2023-03-14T19:32:02;95456.00;;;4.01;67.83
28000;BME280;15328;50.860;10.562;2023-03-14T19:37:02;95465.31;;;4.03;68.28
28000;BME280;15328;50.860;10.562;2023-03-14T19:42:03;95477.66;;;3.96;68.25
28000;BME280;15328;50.860;10.562;2023-03-14T19:47:04;95491.22;;;3.93;68.12
28000;BME280;15328;50.860;10.562;2023-03-14T19:52:04;95505.78;;;3.89;68.42
28000;BME280;15328;50.860;10.562;2023-03-14T19:57:05;95502.16;;;3.90;68.76
28000;BME280;15328;50.860;10.562;2023-03-14T20:02:05;95509.81;;;3.85;68.63
28000;BME280;15328;50.860;10.562;2023-03-14T20:07:06;95511.25;;;3.88;68.57
28000;BME280;15328;50.860;10.562;2023-03-14T20:12:07;95513.03;;;3.81;68.85
28000;BME280;15328;50.860;10.562;2023-03-14T20:17:08;95521.94;;;3.80;68.58
28000;BME280;15328;50.860;10.562;2023-03-14T20:22:08;95531.84;;;3.78;68.75
28000;BME280;15328;50.860;10.562;2023-03-14T20:27:08;95551.47;;;3.75;68.33
28000;BME280;15328;50.860;10.562;2023-03-14T20:32:09;95561.19;;;3.75;67.90
28000;BME280;15328;50.860;10.562;2023-03-14T20:37:09;95564.19;;;3.71;67.62
28000;BME280;15328;50.860;10.562;2023-03-14T20:42:13;95567.44;;;3.73;67.34
28000;BME280;15328;50.860;10.562;2023-03-14T20:47:13;95569.28;;;3.80;65.48
28000;BME280;15328;50.860;10.562;2023-03-14T20:52:13;95583.44;;;3.72;65.42
28000;BME280;15328;50.860;10.562;2023-03-14T20:57:14;95587.47;;;3.68;65.23
28000;BME280;15328;50.860;10.562;2023-03-14T21:02:15;95591.50;;;3.70;65.37
28000;BME280;15328;50.860;10.562;2023-03-14T21:07:16;95601.66;;;3.73;64.46
28000;BME280;15328;50.860;10.562;2023-03-14T21:12:16;95612.16;;;3.73;64.29
28000;BME280;15328;50.860;10.562;2023-03-14T21:17:16;95617.44;;;3.73;64.42
28000;BME280;15328;50.860;10.562;2023-03-14T21:22:17;95620.22;;;3.65;65.08
28000;BME280;15328;50.860;10.562;2023-03-14T21:27:18;95639.66;;;3.64;65.12
28000;BME280;15328;50.860;10.562;2023-03-14T21:32:19;95643.09;;;3.65;65.14
28000;BME280;15328;50.860;10.562;2023-03-14T21:37:19;95641.66;;;3.62;65.92
28000;BME280;15328;50.860;10.562;2023-03-14T21:42:22;95654.59;;;3.57;65.94
28000;BME280;15328;50.860;10.562;2023-03-14T21:47:22;95668.75;;;3.56;66.02
28000;BME280;15328;50.860;10.562;2023-03-14T21:52:23;95671.38;;;3.56;67.19
28000;BME280;15328;50.860;10.562;2023-03-14T21:57:24;95675.44;;;3.59;66.60
28000;BME280;15328;50.860;10.562;2023-03-14T22:02:28;95677.44;;;3.57;66.94
28000;BME280;15328;50.860;10.562;2023-03-14T22:07:29;95680.00;;;3.50;66.64
28000;BME280;15328;50.860;10.562;2023-03-14T22:12:29;95694.13;;;3.42;67.00
28000;BME280;15328;50.860;10.562;2023-03-14T22:17:30;95709.22;;;3.34;66.22
28000;BME280;15328;50.860;10.562;2023-03-14T22:22:30;95712.59;;;3.28;66.71
28000;BME280;15328;50.860;10.562;2023-03-14T22:27:31;95720.63;;;3.20;67.12
28000;BME280;15328;50.860;10.562;2023-03-14T22:32:31;95728.25;;;3.15;66.87
28000;BME280;15328;50.860;10.562;2023-03-14T22:37:31;95734.66;;;3.05;66.94
28000;BME280;15328;50.860;10.562;2023-03-14T22:42:32;95739.81;;;2.99;67.35
28000;BME280;15328;50.860;10.562;2023-03-14T22:47:32;95739.00;;;2.98;67.56
28000;BME280;15328;50.860;10.562;2023-03-14T22:52:33;95749.09;;;2.95;67.53
28000;BME280;15328;50.860;10.562;2023-03-14T22:57:33;95759.41;;;2.96;67.41
28000;BME280;15328;50.860;10.562;2023-03-14T23:02:33;95754.34;;;2.95;67.37
28000;BME280;15328;50.860;10.562;2023-03-14T23:07:34;95766.03;;;2.92;67.09
28000;BME280;15328;50.860;10.562;2023-03-14T23:12:34;95772.03;;;2.86;66.97
28000;BME280;15328;50.860;10.562;2023-03-14T23:17:34;95778.88;;;2.81;66.75
28000;BME280;15328;50.860;10.562;2023-03-14T23:22:35;95777.94;;;2.73;67.23
28000;BME280;15328;50.860;10.562;2023-03-14T23:27:36;95783.38;;;2.72;66.45
28000;BME280;15328;50.860;10.562;2023-03-14T23:32:36;95782.88;;;2.76;66.41
28000;BME280;15328;50.860;10.562;2023-03-14T23:37:37;95789.47;;;2.72;66.49
28000;BME280;15328;50.860;10.562;2023-03-14T23:42:38;95781.13;;;2.69;66.42
28000;BME280;15328;50.860;10.562;2023-03-14T23:47:38;95797.63;;;2.63;66.11
28000;BME280;15328;50.860;10.562;2023-03-14T23:52:40;95805.88;;;2.60;66.50
28000;BME280;15328;50.860;10.562;2023-03-14T23:57:40;95813.13;;;2.58;65.69
